<?xml version="1.0" encoding="UTF-8" standalone="no" ?>
<gpx xmlns="http://www.topografix.com/GPX/1/1" xmlns:xsi="http://www.w3.org/2001/XMLSchema-instance" xsi:schemaLocation="http://www.topografix.com/GPX/1/1 http://www.topografix.com/GPX/1/1/gpx.xsd" version="1.1" creator="VisuGPX - https://www.visugpx.com">
  <metadata>
    <name>LaBala0316</name>
    <desc><![CDATA[sortie de chantier, remise à l'eau, préparation, tour de Groix
avec Johan et Gauvain]]></desc>
  </metadata>
  <trk>
    <name><![CDATA[Tracé actuel: 01 MAI 2016 12:24]]></name>
    <trkseg>
      <trkpt lat="47.66201" lon="-3.43083">
        <ele>3.98</ele>
        <time>2016-05-01T10:24:19Z</time>
      </trkpt>
      <trkpt lat="47.66232" lon="-3.43072">
        <ele>0.62</ele>
        <time>2016-05-01T10:24:32Z</time>
      </trkpt>
      <trkpt lat="47.66268" lon="-3.43048">
        <ele>0.62</ele>
        <time>2016-05-01T10:24:49Z</time>
      </trkpt>
      <trkpt lat="47.66295" lon="-3.43026">
        <ele>0.62</ele>
        <time>2016-05-01T10:25:02Z</time>
      </trkpt>
      <trkpt lat="47.66335" lon="-3.43001">
        <ele>-0.82</ele>
        <time>2016-05-01T10:25:21Z</time>
      </trkpt>
      <trkpt lat="47.66368" lon="-3.4298">
        <ele>-0.34</ele>
        <time>2016-05-01T10:25:36Z</time>
      </trkpt>
      <trkpt lat="47.66406" lon="-3.42953">
        <ele>0.62</ele>
        <time>2016-05-01T10:25:54Z</time>
      </trkpt>
      <trkpt lat="47.66433" lon="-3.42925">
        <ele>-0.34</ele>
        <time>2016-05-01T10:26:08Z</time>
      </trkpt>
      <trkpt lat="47.66456" lon="-3.42906">
        <ele>-1.79</ele>
        <time>2016-05-01T10:26:19Z</time>
      </trkpt>
      <trkpt lat="47.66489" lon="-3.42882">
        <ele>-0.82</ele>
        <time>2016-05-01T10:26:35Z</time>
      </trkpt>
      <trkpt lat="47.66528" lon="-3.42855">
        <ele>-0.34</ele>
        <time>2016-05-01T10:26:53Z</time>
      </trkpt>
      <trkpt lat="47.6656" lon="-3.42832">
        <ele>-0.82</ele>
        <time>2016-05-01T10:27:08Z</time>
      </trkpt>
      <trkpt lat="47.66602" lon="-3.42809">
        <ele>-0.82</ele>
        <time>2016-05-01T10:27:27Z</time>
      </trkpt>
      <trkpt lat="47.66638" lon="-3.4279">
        <ele>-0.82</ele>
        <time>2016-05-01T10:27:43Z</time>
      </trkpt>
      <trkpt lat="47.66684" lon="-3.42769">
        <ele>-1.3</ele>
        <time>2016-05-01T10:28:04Z</time>
      </trkpt>
      <trkpt lat="47.6671" lon="-3.42744">
        <ele>0.62</ele>
        <time>2016-05-01T10:28:17Z</time>
      </trkpt>
      <trkpt lat="47.66747" lon="-3.42709">
        <ele>2.06</ele>
        <time>2016-05-01T10:28:35Z</time>
      </trkpt>
      <trkpt lat="47.6678" lon="-3.42679">
        <ele>4.94</ele>
        <time>2016-05-01T10:28:51Z</time>
      </trkpt>
      <trkpt lat="47.66793" lon="-3.42669">
        <ele>6.39</ele>
        <time>2016-05-01T10:28:57Z</time>
      </trkpt>
      <trkpt lat="47.66804" lon="-3.42657">
        <ele>5.42</ele>
        <time>2016-05-01T10:29:03Z</time>
      </trkpt>
      <trkpt lat="47.66827" lon="-3.42637">
        <ele>2.54</ele>
        <time>2016-05-01T10:29:14Z</time>
      </trkpt>
      <trkpt lat="47.66857" lon="-3.42605">
        <ele>1.58</ele>
        <time>2016-05-01T10:29:29Z</time>
      </trkpt>
      <trkpt lat="47.66893" lon="-3.42571">
        <ele>-0.34</ele>
        <time>2016-05-01T10:29:47Z</time>
      </trkpt>
      <trkpt lat="47.66923" lon="-3.42547">
        <ele>-1.3</ele>
        <time>2016-05-01T10:30:01Z</time>
      </trkpt>
      <trkpt lat="47.66954" lon="-3.42522">
        <ele>-0.82</ele>
        <time>2016-05-01T10:30:16Z</time>
      </trkpt>
      <trkpt lat="47.66983" lon="-3.42493">
        <ele>-0.34</ele>
        <time>2016-05-01T10:30:31Z</time>
      </trkpt>
      <trkpt lat="47.67013" lon="-3.42439">
        <ele>0.14</ele>
        <time>2016-05-01T10:30:50Z</time>
      </trkpt>
      <trkpt lat="47.67046" lon="-3.42392">
        <ele>0.14</ele>
        <time>2016-05-01T10:31:09Z</time>
      </trkpt>
      <trkpt lat="47.67078" lon="-3.42362">
        <ele>0.14</ele>
        <time>2016-05-01T10:31:25Z</time>
      </trkpt>
      <trkpt lat="47.67103" lon="-3.42342">
        <ele>0.14</ele>
        <time>2016-05-01T10:31:38Z</time>
      </trkpt>
      <trkpt lat="47.67135" lon="-3.42319">
        <ele>0.62</ele>
        <time>2016-05-01T10:31:54Z</time>
      </trkpt>
      <trkpt lat="47.67166" lon="-3.42298">
        <ele>0.62</ele>
        <time>2016-05-01T10:32:09Z</time>
      </trkpt>
      <trkpt lat="47.67203" lon="-3.42273">
        <ele>0.14</ele>
        <time>2016-05-01T10:32:26Z</time>
      </trkpt>
      <trkpt lat="47.67237" lon="-3.4225">
        <ele>0.14</ele>
        <time>2016-05-01T10:32:42Z</time>
      </trkpt>
      <trkpt lat="47.67268" lon="-3.42229">
        <ele>-0.34</ele>
        <time>2016-05-01T10:32:57Z</time>
      </trkpt>
      <trkpt lat="47.673" lon="-3.42207">
        <ele>-0.82</ele>
        <time>2016-05-01T10:33:12Z</time>
      </trkpt>
      <trkpt lat="47.67341" lon="-3.42182">
        <ele>-0.34</ele>
        <time>2016-05-01T10:33:31Z</time>
      </trkpt>
      <trkpt lat="47.67377" lon="-3.42156">
        <ele>-0.82</ele>
        <time>2016-05-01T10:33:48Z</time>
      </trkpt>
      <trkpt lat="47.67409" lon="-3.4212">
        <ele>-0.82</ele>
        <time>2016-05-01T10:34:05Z</time>
      </trkpt>
      <trkpt lat="47.67442" lon="-3.42084">
        <ele>-0.82</ele>
        <time>2016-05-01T10:34:22Z</time>
      </trkpt>
      <trkpt lat="47.67474" lon="-3.42049">
        <ele>0.62</ele>
        <time>2016-05-01T10:34:39Z</time>
      </trkpt>
      <trkpt lat="47.67509" lon="-3.42">
        <ele>-0.82</ele>
        <time>2016-05-01T10:34:59Z</time>
      </trkpt>
      <trkpt lat="47.67536" lon="-3.41939">
        <ele>-0.34</ele>
        <time>2016-05-01T10:35:19Z</time>
      </trkpt>
      <trkpt lat="47.67551" lon="-3.41898">
        <ele>0.62</ele>
        <time>2016-05-01T10:35:32Z</time>
      </trkpt>
      <trkpt lat="47.67571" lon="-3.41848">
        <ele>0.62</ele>
        <time>2016-05-01T10:35:48Z</time>
      </trkpt>
      <trkpt lat="47.67595" lon="-3.41793">
        <ele>1.58</ele>
        <time>2016-05-01T10:36:06Z</time>
      </trkpt>
      <trkpt lat="47.67623" lon="-3.41749">
        <ele>1.58</ele>
        <time>2016-05-01T10:36:23Z</time>
      </trkpt>
      <trkpt lat="47.67659" lon="-3.41697">
        <ele>0.14</ele>
        <time>2016-05-01T10:36:44Z</time>
      </trkpt>
      <trkpt lat="47.67684" lon="-3.41649">
        <ele>1.58</ele>
        <time>2016-05-01T10:37:01Z</time>
      </trkpt>
      <trkpt lat="47.67706" lon="-3.41601">
        <ele>0.14</ele>
        <time>2016-05-01T10:37:17Z</time>
      </trkpt>
      <trkpt lat="47.67729" lon="-3.41554">
        <ele>-0.82</ele>
        <time>2016-05-01T10:37:33Z</time>
      </trkpt>
      <trkpt lat="47.67758" lon="-3.415">
        <ele>-0.82</ele>
        <time>2016-05-01T10:37:52Z</time>
      </trkpt>
      <trkpt lat="47.67784" lon="-3.41457">
        <ele>0.14</ele>
        <time>2016-05-01T10:38:08Z</time>
      </trkpt>
      <trkpt lat="47.67811" lon="-3.41414">
        <ele>1.1</ele>
        <time>2016-05-01T10:38:24Z</time>
      </trkpt>
      <trkpt lat="47.67836" lon="-3.41375">
        <ele>0.62</ele>
        <time>2016-05-01T10:38:39Z</time>
      </trkpt>
      <trkpt lat="47.67856" lon="-3.41332">
        <ele>0.14</ele>
        <time>2016-05-01T10:38:53Z</time>
      </trkpt>
      <trkpt lat="47.67878" lon="-3.41297">
        <ele>-0.34</ele>
        <time>2016-05-01T10:39:06Z</time>
      </trkpt>
      <trkpt lat="47.67913" lon="-3.41251">
        <ele>-1.3</ele>
        <time>2016-05-01T10:39:25Z</time>
      </trkpt>
      <trkpt lat="47.67942" lon="-3.41219">
        <ele>-0.82</ele>
        <time>2016-05-01T10:39:40Z</time>
      </trkpt>
      <trkpt lat="47.67973" lon="-3.41194">
        <ele>-0.34</ele>
        <time>2016-05-01T10:39:55Z</time>
      </trkpt>
      <trkpt lat="47.68007" lon="-3.41182">
        <ele>0.14</ele>
        <time>2016-05-01T10:40:10Z</time>
      </trkpt>
      <trkpt lat="47.68042" lon="-3.41174">
        <ele>0.62</ele>
        <time>2016-05-01T10:40:26Z</time>
      </trkpt>
      <trkpt lat="47.68079" lon="-3.41158">
        <ele>0.14</ele>
        <time>2016-05-01T10:40:43Z</time>
      </trkpt>
      <trkpt lat="47.6811" lon="-3.41147">
        <ele>-0.34</ele>
        <time>2016-05-01T10:40:57Z</time>
      </trkpt>
      <trkpt lat="47.68138" lon="-3.41123">
        <ele>0.62</ele>
        <time>2016-05-01T10:41:11Z</time>
      </trkpt>
      <trkpt lat="47.68171" lon="-3.41081">
        <ele>0.62</ele>
        <time>2016-05-01T10:41:29Z</time>
      </trkpt>
      <trkpt lat="47.68191" lon="-3.41055">
        <ele>1.1</ele>
        <time>2016-05-01T10:41:40Z</time>
      </trkpt>
      <trkpt lat="47.68223" lon="-3.41013">
        <ele>1.1</ele>
        <time>2016-05-01T10:41:58Z</time>
      </trkpt>
      <trkpt lat="47.68256" lon="-3.40976">
        <ele>1.58</ele>
        <time>2016-05-01T10:42:15Z</time>
      </trkpt>
      <trkpt lat="47.68286" lon="-3.4093">
        <ele>0.14</ele>
        <time>2016-05-01T10:42:33Z</time>
      </trkpt>
      <trkpt lat="47.68306" lon="-3.40884">
        <ele>-0.82</ele>
        <time>2016-05-01T10:42:48Z</time>
      </trkpt>
      <trkpt lat="47.68329" lon="-3.40823">
        <ele>-0.82</ele>
        <time>2016-05-01T10:43:07Z</time>
      </trkpt>
      <trkpt lat="47.68343" lon="-3.40771">
        <ele>-0.82</ele>
        <time>2016-05-01T10:43:22Z</time>
      </trkpt>
      <trkpt lat="47.68362" lon="-3.40711">
        <ele>0.14</ele>
        <time>2016-05-01T10:43:40Z</time>
      </trkpt>
      <trkpt lat="47.6838" lon="-3.40656">
        <ele>0.62</ele>
        <time>2016-05-01T10:43:57Z</time>
      </trkpt>
      <trkpt lat="47.68392" lon="-3.406">
        <ele>0.62</ele>
        <time>2016-05-01T10:44:15Z</time>
      </trkpt>
      <trkpt lat="47.68412" lon="-3.40537">
        <ele>0.14</ele>
        <time>2016-05-01T10:44:35Z</time>
      </trkpt>
      <trkpt lat="47.68434" lon="-3.40478">
        <ele>-0.82</ele>
        <time>2016-05-01T10:44:53Z</time>
      </trkpt>
      <trkpt lat="47.68451" lon="-3.40431">
        <ele>-0.82</ele>
        <time>2016-05-01T10:45:08Z</time>
      </trkpt>
      <trkpt lat="47.68471" lon="-3.40381">
        <ele>-0.34</ele>
        <time>2016-05-01T10:45:24Z</time>
      </trkpt>
      <trkpt lat="47.68501" lon="-3.40327">
        <ele>-0.82</ele>
        <time>2016-05-01T10:45:43Z</time>
      </trkpt>
      <trkpt lat="47.68523" lon="-3.40281">
        <ele>-0.82</ele>
        <time>2016-05-01T10:45:59Z</time>
      </trkpt>
      <trkpt lat="47.68552" lon="-3.40227">
        <ele>-1.79</ele>
        <time>2016-05-01T10:46:18Z</time>
      </trkpt>
      <trkpt lat="47.68578" lon="-3.40179">
        <ele>-0.82</ele>
        <time>2016-05-01T10:46:35Z</time>
      </trkpt>
      <trkpt lat="47.686" lon="-3.40126">
        <ele>-0.82</ele>
        <time>2016-05-01T10:46:53Z</time>
      </trkpt>
      <trkpt lat="47.68615" lon="-3.40067">
        <ele>-1.3</ele>
        <time>2016-05-01T10:47:11Z</time>
      </trkpt>
      <trkpt lat="47.68632" lon="-3.40008">
        <ele>-0.82</ele>
        <time>2016-05-01T10:47:29Z</time>
      </trkpt>
      <trkpt lat="47.68652" lon="-3.39943">
        <ele>0.62</ele>
        <time>2016-05-01T10:47:49Z</time>
      </trkpt>
      <trkpt lat="47.68673" lon="-3.39893">
        <ele>0.62</ele>
        <time>2016-05-01T10:48:06Z</time>
      </trkpt>
      <trkpt lat="47.68695" lon="-3.39844">
        <ele>0.14</ele>
        <time>2016-05-01T10:48:23Z</time>
      </trkpt>
      <trkpt lat="47.68721" lon="-3.3979">
        <ele>1.1</ele>
        <time>2016-05-01T10:48:42Z</time>
      </trkpt>
      <trkpt lat="47.68737" lon="-3.39756">
        <ele>-0.34</ele>
        <time>2016-05-01T10:48:54Z</time>
      </trkpt>
      <trkpt lat="47.68753" lon="-3.39712">
        <ele>-0.34</ele>
        <time>2016-05-01T10:49:09Z</time>
      </trkpt>
      <trkpt lat="47.68765" lon="-3.39679">
        <ele>-0.82</ele>
        <time>2016-05-01T10:49:20Z</time>
      </trkpt>
      <trkpt lat="47.68791" lon="-3.39639">
        <ele>0.62</ele>
        <time>2016-05-01T10:49:36Z</time>
      </trkpt>
      <trkpt lat="47.68808" lon="-3.39606">
        <ele>1.58</ele>
        <time>2016-05-01T10:49:48Z</time>
      </trkpt>
      <trkpt lat="47.68827" lon="-3.39573">
        <ele>0.14</ele>
        <time>2016-05-01T10:50:01Z</time>
      </trkpt>
      <trkpt lat="47.68852" lon="-3.39527">
        <ele>-0.34</ele>
        <time>2016-05-01T10:50:18Z</time>
      </trkpt>
      <trkpt lat="47.68878" lon="-3.39475">
        <ele>-1.3</ele>
        <time>2016-05-01T10:50:37Z</time>
      </trkpt>
      <trkpt lat="47.68905" lon="-3.39423">
        <ele>-0.34</ele>
        <time>2016-05-01T10:50:56Z</time>
      </trkpt>
      <trkpt lat="47.68926" lon="-3.39381">
        <ele>-0.34</ele>
        <time>2016-05-01T10:51:11Z</time>
      </trkpt>
      <trkpt lat="47.68951" lon="-3.39321">
        <ele>-0.34</ele>
        <time>2016-05-01T10:51:31Z</time>
      </trkpt>
      <trkpt lat="47.68971" lon="-3.39281">
        <ele>0.62</ele>
        <time>2016-05-01T10:51:45Z</time>
      </trkpt>
      <trkpt lat="47.68984" lon="-3.39251">
        <ele>0.14</ele>
        <time>2016-05-01T10:51:55Z</time>
      </trkpt>
      <trkpt lat="47.69003" lon="-3.39204">
        <ele>-0.82</ele>
        <time>2016-05-01T10:52:10Z</time>
      </trkpt>
      <trkpt lat="47.6902" lon="-3.3917">
        <ele>-2.75</ele>
        <time>2016-05-01T10:52:22Z</time>
      </trkpt>
      <trkpt lat="47.69041" lon="-3.39134">
        <ele>-2.27</ele>
        <time>2016-05-01T10:52:35Z</time>
      </trkpt>
      <trkpt lat="47.69062" lon="-3.39095">
        <ele>-0.82</ele>
        <time>2016-05-01T10:52:49Z</time>
      </trkpt>
      <trkpt lat="47.69088" lon="-3.39047">
        <ele>0.14</ele>
        <time>2016-05-01T10:53:06Z</time>
      </trkpt>
      <trkpt lat="47.69109" lon="-3.38995">
        <ele>-0.34</ele>
        <time>2016-05-01T10:53:23Z</time>
      </trkpt>
      <trkpt lat="47.69125" lon="-3.38958">
        <ele>1.1</ele>
        <time>2016-05-01T10:53:35Z</time>
      </trkpt>
      <trkpt lat="47.69149" lon="-3.38917">
        <ele>1.1</ele>
        <time>2016-05-01T10:53:50Z</time>
      </trkpt>
      <trkpt lat="47.69168" lon="-3.38886">
        <ele>0.14</ele>
        <time>2016-05-01T10:54:02Z</time>
      </trkpt>
      <trkpt lat="47.69198" lon="-3.38846">
        <ele>0.62</ele>
        <time>2016-05-01T10:54:19Z</time>
      </trkpt>
      <trkpt lat="47.69212" lon="-3.38807">
        <ele>-1.79</ele>
        <time>2016-05-01T10:54:32Z</time>
      </trkpt>
      <trkpt lat="47.69228" lon="-3.38752">
        <ele>-0.82</ele>
        <time>2016-05-01T10:54:49Z</time>
      </trkpt>
      <trkpt lat="47.69243" lon="-3.38704">
        <ele>-0.34</ele>
        <time>2016-05-01T10:55:04Z</time>
      </trkpt>
      <trkpt lat="47.69257" lon="-3.3866">
        <ele>0.14</ele>
        <time>2016-05-01T10:55:18Z</time>
      </trkpt>
      <trkpt lat="47.69265" lon="-3.38611">
        <ele>0.14</ele>
        <time>2016-05-01T10:55:33Z</time>
      </trkpt>
      <trkpt lat="47.69286" lon="-3.38549">
        <ele>-0.34</ele>
        <time>2016-05-01T10:55:53Z</time>
      </trkpt>
      <trkpt lat="47.69309" lon="-3.38505">
        <ele>-0.82</ele>
        <time>2016-05-01T10:56:09Z</time>
      </trkpt>
      <trkpt lat="47.69336" lon="-3.38444">
        <ele>-0.82</ele>
        <time>2016-05-01T10:56:30Z</time>
      </trkpt>
      <trkpt lat="47.69356" lon="-3.3839">
        <ele>-0.34</ele>
        <time>2016-05-01T10:56:48Z</time>
      </trkpt>
      <trkpt lat="47.69377" lon="-3.38341">
        <ele>-0.82</ele>
        <time>2016-05-01T10:57:05Z</time>
      </trkpt>
      <trkpt lat="47.69401" lon="-3.38292">
        <ele>-1.3</ele>
        <time>2016-05-01T10:57:23Z</time>
      </trkpt>
      <trkpt lat="47.69427" lon="-3.38237">
        <ele>-0.82</ele>
        <time>2016-05-01T10:57:42Z</time>
      </trkpt>
      <trkpt lat="47.6945" lon="-3.3819">
        <ele>-0.34</ele>
        <time>2016-05-01T10:57:59Z</time>
      </trkpt>
      <trkpt lat="47.69472" lon="-3.38141">
        <ele>-0.34</ele>
        <time>2016-05-01T10:58:16Z</time>
      </trkpt>
      <trkpt lat="47.69491" lon="-3.38093">
        <ele>-0.34</ele>
        <time>2016-05-01T10:58:32Z</time>
      </trkpt>
      <trkpt lat="47.69506" lon="-3.38047">
        <ele>-0.82</ele>
        <time>2016-05-01T10:58:47Z</time>
      </trkpt>
      <trkpt lat="47.69518" lon="-3.37995">
        <ele>-0.82</ele>
        <time>2016-05-01T10:59:03Z</time>
      </trkpt>
      <trkpt lat="47.69532" lon="-3.37944">
        <ele>-0.34</ele>
        <time>2016-05-01T10:59:20Z</time>
      </trkpt>
      <trkpt lat="47.69541" lon="-3.37905">
        <ele>-0.34</ele>
        <time>2016-05-01T10:59:34Z</time>
      </trkpt>
      <trkpt lat="47.69553" lon="-3.37857">
        <ele>-0.34</ele>
        <time>2016-05-01T10:59:49Z</time>
      </trkpt>
      <trkpt lat="47.6957" lon="-3.37815">
        <ele>0.14</ele>
        <time>2016-05-01T11:00:03Z</time>
      </trkpt>
      <trkpt lat="47.69585" lon="-3.37775">
        <ele>0.62</ele>
        <time>2016-05-01T11:00:16Z</time>
      </trkpt>
      <trkpt lat="47.696" lon="-3.3773">
        <ele>0.14</ele>
        <time>2016-05-01T11:00:31Z</time>
      </trkpt>
      <trkpt lat="47.69621" lon="-3.37684">
        <ele>-0.34</ele>
        <time>2016-05-01T11:00:47Z</time>
      </trkpt>
      <trkpt lat="47.69638" lon="-3.37642">
        <ele>0.62</ele>
        <time>2016-05-01T11:01:01Z</time>
      </trkpt>
      <trkpt lat="47.69663" lon="-3.37605">
        <ele>0.62</ele>
        <time>2016-05-01T11:01:16Z</time>
      </trkpt>
      <trkpt lat="47.69686" lon="-3.3758">
        <ele>0.14</ele>
        <time>2016-05-01T11:01:28Z</time>
      </trkpt>
      <trkpt lat="47.69713" lon="-3.37551">
        <ele>0.62</ele>
        <time>2016-05-01T11:01:42Z</time>
      </trkpt>
      <trkpt lat="47.69746" lon="-3.37517">
        <ele>0.62</ele>
        <time>2016-05-01T11:01:59Z</time>
      </trkpt>
      <trkpt lat="47.69778" lon="-3.37486">
        <ele>0.14</ele>
        <time>2016-05-01T11:02:15Z</time>
      </trkpt>
      <trkpt lat="47.69806" lon="-3.37456">
        <ele>-1.3</ele>
        <time>2016-05-01T11:02:30Z</time>
      </trkpt>
      <trkpt lat="47.69833" lon="-3.37437">
        <ele>-0.82</ele>
        <time>2016-05-01T11:02:43Z</time>
      </trkpt>
      <trkpt lat="47.69868" lon="-3.37409">
        <ele>-0.34</ele>
        <time>2016-05-01T11:03:00Z</time>
      </trkpt>
      <trkpt lat="47.699" lon="-3.37383">
        <ele>0.14</ele>
        <time>2016-05-01T11:03:16Z</time>
      </trkpt>
      <trkpt lat="47.69939" lon="-3.37355">
        <ele>-0.34</ele>
        <time>2016-05-01T11:03:34Z</time>
      </trkpt>
      <trkpt lat="47.69978" lon="-3.37331">
        <ele>-0.34</ele>
        <time>2016-05-01T11:03:52Z</time>
      </trkpt>
      <trkpt lat="47.7001" lon="-3.37303">
        <ele>-1.3</ele>
        <time>2016-05-01T11:04:08Z</time>
      </trkpt>
      <trkpt lat="47.70041" lon="-3.37281">
        <ele>-2.27</ele>
        <time>2016-05-01T11:04:22Z</time>
      </trkpt>
      <trkpt lat="47.70071" lon="-3.37257">
        <ele>-2.75</ele>
        <time>2016-05-01T11:04:36Z</time>
      </trkpt>
      <trkpt lat="47.70084" lon="-3.37248">
        <ele>-3.23</ele>
        <time>2016-05-01T11:04:42Z</time>
      </trkpt>
      <trkpt lat="47.70114" lon="-3.37225">
        <ele>-2.27</ele>
        <time>2016-05-01T11:04:55Z</time>
      </trkpt>
      <trkpt lat="47.70141" lon="-3.372">
        <ele>-2.27</ele>
        <time>2016-05-01T11:05:09Z</time>
      </trkpt>
      <trkpt lat="47.70176" lon="-3.3717">
        <ele>-2.27</ele>
        <time>2016-05-01T11:05:26Z</time>
      </trkpt>
      <trkpt lat="47.70206" lon="-3.37148">
        <ele>-0.82</ele>
        <time>2016-05-01T11:05:40Z</time>
      </trkpt>
      <trkpt lat="47.70239" lon="-3.37125">
        <ele>0.14</ele>
        <time>2016-05-01T11:05:55Z</time>
      </trkpt>
      <trkpt lat="47.70268" lon="-3.37103">
        <ele>-1.79</ele>
        <time>2016-05-01T11:06:09Z</time>
      </trkpt>
      <trkpt lat="47.70299" lon="-3.37076">
        <ele>-2.27</ele>
        <time>2016-05-01T11:06:23Z</time>
      </trkpt>
      <trkpt lat="47.70318" lon="-3.37062">
        <ele>-3.23</ele>
        <time>2016-05-01T11:06:32Z</time>
      </trkpt>
      <trkpt lat="47.70353" lon="-3.37043">
        <ele>-3.23</ele>
        <time>2016-05-01T11:06:48Z</time>
      </trkpt>
      <trkpt lat="47.70383" lon="-3.37028">
        <ele>-2.27</ele>
        <time>2016-05-01T11:07:01Z</time>
      </trkpt>
      <trkpt lat="47.70416" lon="-3.37002">
        <ele>-2.75</ele>
        <time>2016-05-01T11:07:16Z</time>
      </trkpt>
      <trkpt lat="47.70443" lon="-3.36983">
        <ele>-3.71</ele>
        <time>2016-05-01T11:07:28Z</time>
      </trkpt>
      <trkpt lat="47.70471" lon="-3.36965">
        <ele>-6.11</ele>
        <time>2016-05-01T11:07:41Z</time>
      </trkpt>
      <trkpt lat="47.70496" lon="-3.3695">
        <ele>-5.63</ele>
        <time>2016-05-01T11:07:53Z</time>
      </trkpt>
      <trkpt lat="47.70527" lon="-3.36936">
        <ele>-4.67</ele>
        <time>2016-05-01T11:08:06Z</time>
      </trkpt>
      <trkpt lat="47.70556" lon="-3.36918">
        <ele>-3.71</ele>
        <time>2016-05-01T11:08:19Z</time>
      </trkpt>
      <trkpt lat="47.7059" lon="-3.36901">
        <ele>-5.15</ele>
        <time>2016-05-01T11:08:34Z</time>
      </trkpt>
      <trkpt lat="47.70615" lon="-3.36885">
        <ele>-6.59</ele>
        <time>2016-05-01T11:08:46Z</time>
      </trkpt>
      <trkpt lat="47.70643" lon="-3.3687">
        <ele>-7.07</ele>
        <time>2016-05-01T11:08:59Z</time>
      </trkpt>
      <trkpt lat="47.70681" lon="-3.36848">
        <ele>-5.63</ele>
        <time>2016-05-01T11:09:16Z</time>
      </trkpt>
      <trkpt lat="47.70706" lon="-3.36839">
        <ele>-3.71</ele>
        <time>2016-05-01T11:09:27Z</time>
      </trkpt>
      <trkpt lat="47.71912" lon="-3.35793">
        <ele>-3.71</ele>
        <time>2016-05-01T11:19:45Z</time>
      </trkpt>
      <trkpt lat="47.71949" lon="-3.3576">
        <ele>-0.82</ele>
        <time>2016-05-01T11:20:03Z</time>
      </trkpt>
      <trkpt lat="47.71993" lon="-3.35726">
        <ele>-1.3</ele>
        <time>2016-05-01T11:20:24Z</time>
      </trkpt>
      <trkpt lat="47.72035" lon="-3.35699">
        <ele>-2.75</ele>
        <time>2016-05-01T11:20:43Z</time>
      </trkpt>
      <trkpt lat="47.72066" lon="-3.35668">
        <ele>-1.3</ele>
        <time>2016-05-01T11:20:59Z</time>
      </trkpt>
      <trkpt lat="47.72095" lon="-3.35637">
        <ele>-1.79</ele>
        <time>2016-05-01T11:21:14Z</time>
      </trkpt>
      <trkpt lat="47.72125" lon="-3.35603">
        <ele>-4.19</ele>
        <time>2016-05-01T11:21:30Z</time>
      </trkpt>
      <trkpt lat="47.72145" lon="-3.35579">
        <ele>-4.67</ele>
        <time>2016-05-01T11:21:40Z</time>
      </trkpt>
      <trkpt lat="47.72169" lon="-3.3555">
        <ele>-3.23</ele>
        <time>2016-05-01T11:21:53Z</time>
      </trkpt>
      <trkpt lat="47.72201" lon="-3.35521">
        <ele>-3.71</ele>
        <time>2016-05-01T11:22:09Z</time>
      </trkpt>
      <trkpt lat="47.72224" lon="-3.355">
        <ele>-2.27</ele>
        <time>2016-05-01T11:22:20Z</time>
      </trkpt>
      <trkpt lat="47.72262" lon="-3.35468">
        <ele>-3.23</ele>
        <time>2016-05-01T11:22:38Z</time>
      </trkpt>
      <trkpt lat="47.72309" lon="-3.3544">
        <ele>-3.23</ele>
        <time>2016-05-01T11:22:59Z</time>
      </trkpt>
      <trkpt lat="47.72349" lon="-3.35414">
        <ele>-1.3</ele>
        <time>2016-05-01T11:23:17Z</time>
      </trkpt>
      <trkpt lat="47.72385" lon="-3.35385">
        <ele>-1.3</ele>
        <time>2016-05-01T11:23:34Z</time>
      </trkpt>
      <trkpt lat="47.72429" lon="-3.35356">
        <ele>-0.82</ele>
        <time>2016-05-01T11:23:54Z</time>
      </trkpt>
      <trkpt lat="47.72462" lon="-3.35328">
        <ele>-1.3</ele>
        <time>2016-05-01T11:24:10Z</time>
      </trkpt>
      <trkpt lat="47.72489" lon="-3.35304">
        <ele>-1.79</ele>
        <time>2016-05-01T11:24:23Z</time>
      </trkpt>
      <trkpt lat="47.72527" lon="-3.35271">
        <ele>-3.23</ele>
        <time>2016-05-01T11:24:42Z</time>
      </trkpt>
      <trkpt lat="47.72529" lon="-3.35269">
        <ele>-3.23</ele>
        <time>2016-05-01T11:24:43Z</time>
      </trkpt>
      <trkpt lat="47.72554" lon="-3.35251">
        <ele>-4.19</ele>
        <time>2016-05-01T11:24:54Z</time>
      </trkpt>
      <trkpt lat="47.72594" lon="-3.35218">
        <ele>-1.3</ele>
        <time>2016-05-01T11:25:17Z</time>
      </trkpt>
      <trkpt lat="47.72641" lon="-3.3517">
        <ele>-0.82</ele>
        <time>2016-05-01T11:25:49Z</time>
      </trkpt>
      <trkpt lat="47.72668" lon="-3.35127">
        <ele>-0.82</ele>
        <time>2016-05-01T11:26:16Z</time>
      </trkpt>
      <trkpt lat="47.72677" lon="-3.35088">
        <ele>-0.34</ele>
        <time>2016-05-01T11:26:43Z</time>
      </trkpt>
      <trkpt lat="47.72678" lon="-3.3504">
        <ele>0.14</ele>
        <time>2016-05-01T11:27:13Z</time>
      </trkpt>
      <trkpt lat="47.72678" lon="-3.34984">
        <ele>1.1</ele>
        <time>2016-05-01T11:27:44Z</time>
      </trkpt>
      <trkpt lat="47.7268" lon="-3.34926">
        <ele>0.62</ele>
        <time>2016-05-01T11:28:13Z</time>
      </trkpt>
      <trkpt lat="47.72673" lon="-3.34879">
        <ele>0.14</ele>
        <time>2016-05-01T11:28:40Z</time>
      </trkpt>
      <trkpt lat="47.72655" lon="-3.34888">
        <ele>-1.3</ele>
        <time>2016-05-01T11:29:07Z</time>
      </trkpt>
      <trkpt lat="47.72653" lon="-3.34908">
        <ele>-0.34</ele>
        <time>2016-05-01T11:29:34Z</time>
      </trkpt>
      <trkpt lat="47.72656" lon="-3.34913">
        <ele>-0.34</ele>
        <time>2016-05-01T11:29:59Z</time>
      </trkpt>
      <trkpt lat="47.72659" lon="-3.34916">
        <ele>-0.82</ele>
        <time>2016-05-01T11:30:29Z</time>
      </trkpt>
      <trkpt lat="47.7266" lon="-3.34917">
        <ele>-0.82</ele>
        <time>2016-05-01T11:31:00Z</time>
      </trkpt>
      <trkpt lat="47.72661" lon="-3.34917">
        <ele>0.14</ele>
        <time>2016-05-01T11:31:25Z</time>
      </trkpt>
      <trkpt lat="47.72662" lon="-3.34918">
        <ele>0.14</ele>
        <time>2016-05-01T11:31:55Z</time>
      </trkpt>
      <trkpt lat="47.72662" lon="-3.34917">
        <ele>0.62</ele>
        <time>2016-05-01T11:32:26Z</time>
      </trkpt>
      <trkpt lat="47.72662" lon="-3.34917">
        <ele>1.1</ele>
        <time>2016-05-01T11:32:51Z</time>
      </trkpt>
      <trkpt lat="47.72661" lon="-3.34917">
        <ele>1.1</ele>
        <time>2016-05-01T11:33:21Z</time>
      </trkpt>
      <trkpt lat="47.72661" lon="-3.34918">
        <ele>1.1</ele>
        <time>2016-05-01T11:33:48Z</time>
      </trkpt>
      <trkpt lat="47.72661" lon="-3.34919">
        <ele>1.1</ele>
        <time>2016-05-01T11:34:19Z</time>
      </trkpt>
      <trkpt lat="47.72661" lon="-3.3492">
        <ele>1.58</ele>
        <time>2016-05-01T11:34:50Z</time>
      </trkpt>
      <trkpt lat="47.72661" lon="-3.34919">
        <ele>1.58</ele>
        <time>2016-05-01T11:35:20Z</time>
      </trkpt>
      <trkpt lat="47.7266" lon="-3.34919">
        <ele>1.58</ele>
        <time>2016-05-01T11:35:49Z</time>
      </trkpt>
      <trkpt lat="47.7266" lon="-3.34919">
        <ele>1.58</ele>
        <time>2016-05-01T11:36:18Z</time>
      </trkpt>
      <trkpt lat="47.72659" lon="-3.34919">
        <ele>2.06</ele>
        <time>2016-05-01T11:36:49Z</time>
      </trkpt>
      <trkpt lat="47.72659" lon="-3.34919">
        <ele>2.06</ele>
        <time>2016-05-01T11:37:13Z</time>
      </trkpt>
      <trkpt lat="47.7266" lon="-3.34919">
        <ele>1.58</ele>
        <time>2016-05-01T11:37:29Z</time>
      </trkpt>
      <trkpt lat="47.72661" lon="-3.34918">
        <ele>0.62</ele>
        <time>2016-05-01T11:37:50Z</time>
      </trkpt>
      <trkpt lat="47.72661" lon="-3.34918">
        <ele>0.62</ele>
        <time>2016-05-01T11:37:57Z</time>
      </trkpt>
    </trkseg>
  </trk>
</gpx>